Puerto Plata, Dominican Republic
Current Conditions -  °F | °C
As of 8:00 PM on Friday 24 Oct 2014 (Local Time) from MDPP Reporting Station
Broken Clouds Broken Clouds  
Wind Chill: 82°   Ceiling: 30000
Heat Index: 89°   Visibility: 6mi
Dew Point: 75°   Wind: 0mph
Humidity: 79%   Direction: NA
Pressure: 29.83"   Gusts: NA
Location:  19.8°N, 70.7°W
Report Text: MDPP 250000Z 00000KT 9999 FEW020 BKN300 28/24 Q1010 NOSIG
Loading
Personal Weather Stations






























Interactive Weather Map
Tropical Storm Tracking
New forecast layout! Learn more

10-Day Weather Forecast

Advertisements
Track Severe Weather on mobile